Time;durP1;ratioP1;P1;durP2;ratioP2;P2;SDS_P1;SDS_P2;PMS_P1;PMS_P2;Temp;Humidity;BMP_temperature;BMP_pressure;BME280_temperature;BME280_humidity;BME280_pressure;Samples;Min_cycle;Max_cycle;Signal;HPM_P1;HPM_P2
2022/10/20 00:01:13;;;;;;;5.70;3.10;;;;;;;13.67;63.27;101613.69;5125848;28;20047;-59
2022/10/20 00:03:40;;;;;;;9.02;3.22;;;;;;;13.67;63.53;101615.56;5127725;28;20061;-59
2022/10/20 00:06:10;;;;;;;7.05;3.30;;;;;;;13.67;63.38;101594.78;5113622;28;20052;-59
2022/10/20 00:08:39;;;;;;;6.30;3.40;;;;;;;13.68;63.29;101601.00;5121428;28;20040;-59
2022/10/20 00:11:09;;;;;;;6.05;3.03;;;;;;;13.67;63.30;101600.19;5106627;28;20048;-59
2022/10/20 00:13:38;;;;;;;9.10;4.00;;;;;;;13.62;63.61;101607.31;5110426;28;20055;-59
2022/10/20 00:16:06;;;;;;;7.75;3.00;;;;;;;13.63;63.39;101609.78;5106919;28;20052;-59
2022/10/20 00:18:35;;;;;;;6.03;3.45;;;;;;;13.64;63.84;101599.81;5108722;28;20056;-58
2022/10/20 00:21:10;;;;;;;6.00;3.40;;;;;;;13.63;63.52;101604.38;5114190;28;20059;-58
2022/10/20 00:23:37;;;;;;;8.45;3.35;;;;;;;13.63;63.64;101612.50;5114665;28;20048;-58
2022/10/20 00:26:09;;;;;;;6.28;3.40;;;;;;;13.63;63.86;101603.56;5106447;28;20141;-58
2022/10/20 00:28:37;;;;;;;7.10;3.10;;;;;;;13.62;63.65;101588.41;5117142;28;20040;-59
2022/10/20 00:31:05;;;;;;;7.68;3.40;;;;;;;13.61;63.74;101584.06;5111894;28;20701;-59
2022/10/20 00:33:34;;;;;;;7.05;3.45;;;;;;;13.61;63.81;101579.47;5115205;28;20118;-59
2022/10/20 00:36:03;;;;;;;6.68;3.42;;;;;;;13.60;63.84;101582.41;5116085;28;20047;-59
2022/10/20 00:38:31;;;;;;;6.47;3.50;;;;;;;13.60;63.43;101574.28;5111375;28;20400;-59
2022/10/20 00:41:01;;;;;;;6.38;3.58;;;;;;;13.59;63.70;101561.84;5106323;28;20044;-59
2022/10/20 00:43:43;;;;;;;8.77;3.40;;;;;;;13.57;63.61;101567.47;5106762;28;20381;-60
2022/10/20 00:46:12;;;;;;;9.13;3.63;;;;;;;13.57;63.57;101561.25;5106740;28;20048;-59
2022/10/20 00:48:42;;;;;;;9.80;3.42;;;;;;;13.55;63.58;101557.94;5119016;28;20432;-60
2022/10/20 00:51:14;;;;;;;6.70;3.35;;;;;;;13.55;63.95;101552.53;5105922;28;20055;-58
2022/10/20 00:53:44;;;;;;;6.63;3.60;;;;;;;13.53;63.77;101552.75;5114065;28;20104;-59
2022/10/20 00:56:12;;;;;;;6.32;3.60;;;;;;;13.54;64.01;101556.28;5113933;28;20051;-59
2022/10/20 00:58:40;;;;;;;5.72;3.72;;;;;;;13.55;63.86;101574.97;5108986;28;20059;-59
2022/10/20 01:01:11;;;;;;;8.23;3.92;;;;;;;13.55;63.82;101566.03;5118811;28;20048;-59
2022/10/20 01:03:44;;;;;;;6.38;3.95;;;;;;;13.53;64.24;101560.88;5124190;28;20044;-59
2022/10/20 01:06:13;;;;;;;9.02;4.38;;;;;;;13.52;63.74;101547.59;5114584;28;20073;-58
2022/10/20 01:08:41;;;;;;;6.68;4.28;;;;;;;13.53;63.80;101533.03;5115583;28;20497;-59
2022/10/20 01:11:26;;;;;;;8.82;3.78;;;;;;;13.52;63.80;101521.41;5110732;28;20056;-59
2022/10/20 01:14:05;;;;;;;9.73;3.78;;;;;;;13.52;63.82;101516.00;5119749;28;20054;-60
2022/10/20 01:16:40;;;;;;;8.30;4.18;;;;;;;13.50;63.84;101507.31;5110302;28;20051;-59
2022/10/20 01:19:29;;;;;;;7.35;4.00;;;;;;;13.48;64.21;101509.41;5111289;28;20048;-60
2022/10/20 01:22:13;;;;;;;6.82;3.80;;;;;;;13.48;64.09;101505.88;5108798;28;20052;-60
2022/10/20 01:24:55;;;;;;;11.27;3.95;;;;;;;13.48;63.79;101497.78;5114239;28;20048;-60
2022/10/20 01:27:33;;;;;;;7.53;4.18;;;;;;;13.47;64.09;101479.91;5114015;28;20051;-59
2022/10/20 01:30:09;;;;;;;6.68;4.32;;;;;;;13.47;63.96;101485.31;5113451;28;20058;-59
2022/10/20 01:32:49;;;;;;;10.90;4.15;;;;;;;13.46;64.33;101489.91;5107777;28;20055;-60
2022/10/20 01:35:27;;;;;;;7.22;4.38;;;;;;;13.45;64.45;101482.84;5113616;28;20047;-60
2022/10/20 01:38:03;;;;;;;5.55;3.53;;;;;;;13.44;64.19;101481.19;5123413;28;20047;-59
2022/10/20 01:40:39;;;;;;;8.35;4.88;;;;;;;13.44;64.37;101492.00;5116143;28;20051;-60
2022/10/20 01:43:13;;;;;;;5.90;4.20;;;;;;;13.43;64.53;101494.91;5105312;28;20048;-60
2022/10/20 01:45:46;;;;;;;6.80;4.38;;;;;;;13.44;64.39;101489.28;5118621;28;20043;-59
2022/10/20 01:48:17;;;;;;;10.18;3.97;;;;;;;13.44;64.12;101493.88;5107422;28;20044;-59
2022/10/20 01:50:47;;;;;;;6.13;3.97;;;;;;;13.42;64.32;101488.69;5112555;28;20062;-60
2022/10/20 01:53:15;;;;;;;7.20;4.22;;;;;;;13.43;64.73;101486.81;5107241;28;20043;-59
2022/10/20 01:55:43;;;;;;;6.93;4.57;;;;;;;13.44;64.54;101483.91;5105016;28;20054;-59
2022/10/20 01:58:43;;;;;;;7.38;4.35;;;;;;;13.44;64.41;101483.06;5105292;28;20059;-60
2022/10/20 02:01:17;;;;;;;8.82;4.30;;;;;;;13.45;64.49;101487.41;5104867;28;20059;-59
2022/10/20 02:03:52;;;;;;;9.68;4.97;;;;;;;13.43;64.47;101490.34;5117923;28;20043;-60
2022/10/20 02:06:32;;;;;;;6.78;4.20;;;;;;;13.43;64.41;101478.72;5108235;28;20047;-60
2022/10/20 02:09:04;;;;;;;10.73;4.20;;;;;;;13.42;64.60;101469.78;5105412;28;20048;-60
2022/10/20 02:11:42;;;;;;;8.23;4.15;;;;;;;13.38;64.44;101465.91;5110775;28;20069;-59
2022/10/20 02:14:14;;;;;;;7.43;4.57;;;;;;;13.40;64.84;101474.59;5124970;28;20126;-60
2022/10/20 02:16:47;;;;;;;9.50;4.53;;;;;;;13.41;64.58;101472.72;5124793;28;20048;-59
2022/10/20 02:19:18;;;;;;;6.68;4.60;;;;;;;13.39;64.60;101456.75;5110168;28;20059;-59
2022/10/20 02:21:47;;;;;;;9.10;5.18;;;;;;;13.40;64.44;101449.47;5104287;28;20046;-60
2022/10/20 02:24:17;;;;;;;6.95;4.57;;;;;;;13.39;64.83;101447.81;5108834;28;20047;-60
2022/10/20 02:26:45;;;;;;;7.45;4.97;;;;;;;13.39;65.04;101447.81;5121676;28;20047;-60
2022/10/20 02:29:17;;;;;;;7.32;5.10;;;;;;;13.38;64.63;101432.66;5105154;28;20044;-59
2022/10/20 02:31:46;;;;;;;7.65;4.63;;;;;;;13.38;64.93;101429.97;5104942;28;20044;-59
2022/10/20 02:34:14;;;;;;;9.18;5.10;;;;;;;13.33;64.73;101412.56;5107564;28;20043;-60
2022/10/20 02:36:43;;;;;;;8.15;5.30;;;;;;;13.33;65.20;101406.34;5123722;28;20067;-59
2022/10/20 02:39:11;;;;;;;8.35;4.95;;;;;;;13.36;65.05;101403.19;5111158;28;20056;-59
2022/10/20 02:41:39;;;;;;;8.07;5.30;;;;;;;13.35;65.17;101399.69;5105491;28;20489;-60
2022/10/20 02:44:06;;;;;;;6.70;4.60;;;;;;;13.35;64.92;101396.16;5104400;28;20048;-60
2022/10/20 02:46:35;;;;;;;7.00;4.82;;;;;;;13.35;64.79;101391.56;5108311;28;20480;-60
2022/10/20 02:49:03;;;;;;;6.95;4.35;;;;;;;13.35;64.62;101388.06;5108473;28;20056;-60
2022/10/20 02:51:31;;;;;;;11.18;4.65;;;;;;;13.34;65.12;101384.53;5114029;28;20044;-59
2022/10/20 02:53:58;;;;;;;10.77;4.95;;;;;;;13.33;65.09;101376.66;5115180;28;20048;-60
2022/10/20 02:56:26;;;;;;;8.05;5.00;;;;;;;13.33;64.81;101368.56;5104182;28;20052;-59
2022/10/20 02:58:57;;;;;;;14.07;5.05;;;;;;;13.32;65.18;101366.91;5107761;28;20048;-59
2022/10/20 03:01:25;;;;;;;8.90;4.80;;;;;;;13.32;64.91;101369.63;5109707;28;20055;-59
2022/10/20 03:03:58;;;;;;;8.40;4.97;;;;;;;13.30;65.15;101356.34;5108066;28;20058;-59
2022/10/20 03:06:26;;;;;;;7.78;5.35;;;;;;;13.31;65.02;101357.16;5106524;28;20059;-60
2022/10/20 03:08:54;;;;;;;8.45;5.22;;;;;;;13.31;64.89;101352.59;5114586;28;20055;-60
2022/10/20 03:11:22;;;;;;;8.30;5.57;;;;;;;13.30;65.12;101345.53;5106187;28;20078;-59
2022/10/20 03:13:50;;;;;;;9.02;5.68;;;;;;;13.30;65.02;101345.53;5118965;28;20044;-59
2022/10/20 03:16:17;;;;;;;9.25;5.20;;;;;;;13.29;65.33;101343.91;5111110;28;20048;-60
2022/10/20 03:18:45;;;;;;;6.85;4.93;;;;;;;13.29;65.40;101345.78;5122991;28;20047;-60
2022/10/20 03:21:14;;;;;;;11.02;5.40;;;;;;;13.28;65.31;101344.13;5110708;28;20047;-60
2022/10/20 03:23:42;;;;;;;11.63;5.80;;;;;;;13.28;64.97;101339.53;5112099;28;20040;-60
2022/10/20 03:26:11;;;;;;;7.32;4.70;;;;;;;13.24;65.23;101335.66;5116110;28;20044;-60
2022/10/20 03:28:39;;;;;;;7.07;5.00;;;;;;;13.29;65.11;101333.09;5115861;28;20046;-60
2022/10/20 03:31:08;;;;;;;10.02;5.63;;;;;;;13.29;65.04;101322.28;5115920;28;20058;-60
2022/10/20 03:33:36;;;;;;;9.07;5.97;;;;;;;13.25;65.07;101310.31;5122365;28;20053;-60
2022/10/20 03:36:04;;;;;;;7.78;6.00;;;;;;;13.30;65.00;101317.72;5115025;28;20048;-60
2022/10/20 03:38:33;;;;;;;7.65;5.70;;;;;;;13.30;65.03;101317.72;5122423;28;20048;-60
2022/10/20 03:41:01;;;;;;;7.28;5.13;;;;;;;13.30;65.10;101313.16;5118744;28;20047;-60
2022/10/20 03:43:34;;;;;;;9.48;5.45;;;;;;;13.30;65.30;101321.25;5122523;27;20403;-60
2022/10/20 03:46:03;;;;;;;9.65;5.15;;;;;;;13.30;65.31;101317.72;5113845;28;20059;-60
2022/10/20 03:48:30;;;;;;;8.48;5.85;;;;;;;13.29;65.15;101316.91;5114923;28;20409;-60
2022/10/20 03:50:59;;;;;;;8.93;6.00;;;;;;;13.30;65.52;101296.13;5116405;28;20051;-60
2022/10/20 03:53:27;;;;;;;11.32;6.25;;;;;;;13.30;65.37;101302.34;5113127;28;20488;-60
2022/10/20 03:55:56;;;;;;;9.77;5.68;;;;;;;13.30;65.51;101301.53;5118328;28;20044;-60
2022/10/20 03:58:24;;;;;;;7.70;5.35;;;;;;;13.27;65.64;101297.41;5109310;28;20044;-60
2022/10/20 04:00:52;;;;;;;12.30;6.82;;;;;;;13.29;65.51;101303.41;5116563;28;20043;-60
2022/10/20 04:03:19;;;;;;;9.43;5.97;;;;;;;13.30;65.76;101299.66;5107241;28;20035;-60
2022/10/20 04:05:47;;;;;;;8.25;5.95;;;;;;;13.29;65.16;101300.69;5117900;28;20052;-60
2022/10/20 04:08:15;;;;;;;11.48;5.20;;;;;;;13.29;65.65;101307.97;5115385;28;20066;-61
2022/10/20 04:10:43;;;;;;;11.35;6.32;;;;;;;13.28;65.30;101307.16;5121087;28;20064;-61
2022/10/20 04:13:12;;;;;;;11.48;7.10;;;;;;;13.28;65.76;101293.66;5112684;28;20048;-60
2022/10/20 04:15:40;;;;;;;8.45;5.10;;;;;;;13.28;66.05;101293.66;5108526;28;20067;-60
2022/10/20 04:18:08;;;;;;;10.40;5.57;;;;;;;13.29;65.57;101294.47;5115166;28;20044;-61
2022/10/20 04:20:35;;;;;;;9.52;6.07;;;;;;;13.28;66.05;101290.13;5118697;28;20054;-61
2022/10/20 04:23:08;;;;;;;7.97;5.97;;;;;;;13.27;66.04;101280.38;5112792;28;20068;-60
2022/10/20 04:25:44;;;;;;;9.85;6.13;;;;;;;13.26;65.78;101268.75;5109864;28;20052;-60
2022/10/20 04:28:14;;;;;;;8.93;5.60;;;;;;;13.26;65.45;101268.75;5107537;28;20087;-60
2022/10/20 04:30:43;;;;;;;7.82;4.95;;;;;;;13.26;65.61;101257.16;5105179;28;20062;-60
2022/10/20 04:36:51;;;;;;;8.77;5.68;;;;;;;13.25;66.02;101258.19;5117345;28;20084;-60
2022/10/20 04:39:19;;;;;;;10.43;5.95;;;;;;;13.25;65.71;101260.91;5119782;28;20052;-64
2022/10/20 04:41:46;;;;;;;10.98;6.50;;;;;;;13.25;65.96;101261.72;5120435;28;20062;-62
2022/10/20 04:44:15;;;;;;;7.53;5.57;;;;;;;13.24;65.64;101260.06;5111784;28;20103;-62
2022/10/20 04:46:43;;;;;;;11.30;6.18;;;;;;;13.21;65.89;101246.22;5126559;28;20043;-60
2022/10/20 04:49:11;;;;;;;8.77;5.90;;;;;;;13.25;65.97;101240.13;5107065;28;20327;-60
2022/10/20 04:51:39;;;;;;;8.45;5.78;;;;;;;13.25;65.73;101232.03;5106631;28;20055;-60
2022/10/20 04:54:06;;;;;;;7.60;5.60;;;;;;;13.23;66.07;101233.31;5112292;28;20040;-60
2022/10/20 04:56:34;;;;;;;10.60;5.68;;;;;;;13.23;66.09;101241.41;5108619;28;20052;-60
2022/10/20 04:59:02;;;;;;;10.57;5.13;;;;;;;13.25;65.77;101236.59;5113137;28;20059;-60
2022/10/20 05:01:32;;;;;;;11.10;5.53;;;;;;;13.23;66.05;101226.03;5113915;28;20051;-60
2022/10/20 05:03:59;;;;;;;8.75;5.53;;;;;;;13.22;66.02;101232.50;5115927;28;20054;-61
2022/10/20 05:06:29;;;;;;;9.60;5.32;;;;;;;13.22;66.36;101242.47;5117456;28;20044;-61
2022/10/20 05:08:59;;;;;;;9.07;5.68;;;;;;;13.21;66.14;101246.22;5119388;28;20055;-60
2022/10/20 05:11:28;;;;;;;8.57;5.53;;;;;;;13.21;66.27;101233.53;5113790;28;20522;-62
2022/10/20 05:13:57;;;;;;;8.90;6.60;;;;;;;13.22;66.30;101227.09;5110955;28;20066;-59
2022/10/20 05:16:25;;;;;;;11.85;6.63;;;;;;;13.23;66.71;101209.84;5104699;28;20052;-60
2022/10/20 05:18:56;;;;;;;12.10;5.80;;;;;;;13.22;66.32;101200.09;5116177;28;20044;-59
2022/10/20 05:21:25;;;;;;;9.98;5.75;;;;;;;13.22;66.19;101192.00;5108779;28;20051;-59
2022/10/20 05:23:55;;;;;;;7.07;5.35;;;;;;;13.20;66.43;101213.00;5122078;28;20048;-59
2022/10/20 05:26:24;;;;;;;9.50;5.00;;;;;;;13.22;66.12;101228.97;5109103;28;20058;-60
2022/10/20 05:28:52;;;;;;;8.32;4.93;;;;;;;13.22;66.00;101223.56;5105742;28;20059;-59
2022/10/20 05:31:22;;;;;;;8.95;5.45;;;;;;;13.22;66.06;101228.97;4402466;28;10001400;-59
2022/10/20 05:33:51;;;;;;;7.78;5.65;;;;;;;13.22;66.50;101228.97;5097286;28;20082;-59
2022/10/20 05:36:23;;;;;;;8.30;5.35;;;;;;;13.21;66.43;101230.03;5087879;28;20056;-59
2022/10/20 05:38:52;;;;;;;10.85;5.35;;;;;;;13.21;66.65;101217.34;5091528;28;20845;-61
2022/10/20 05:41:22;;;;;;;13.05;6.78;;;;;;;13.21;66.56;101203.03;5097158;28;20186;-59
2022/10/20 05:43:51;;;;;;;8.30;5.45;;;;;;;13.21;66.30;101195.75;5089473;28;20048;-60
2022/10/20 05:46:20;;;;;;;8.18;5.97;;;;;;;13.19;66.72;101205.13;5092464;28;20056;-59
2022/10/20 05:48:48;;;;;;;8.30;5.40;;;;;;;13.20;66.16;101214.88;5099092;28;20055;-59
2022/10/20 05:51:18;;;;;;;7.47;5.30;;;;;;;13.19;66.28;101207.84;5084828;28;20408;-60
2022/10/20 05:53:47;;;;;;;8.57;5.78;;;;;;;13.19;66.01;101214.06;5096389;28;20055;-59
2022/10/20 05:56:20;;;;;;;6.70;5.00;;;;;;;13.19;66.38;101211.34;5097951;28;20051;-60
2022/10/20 05:58:48;;;;;;;8.68;5.93;;;;;;;13.19;66.09;101216.75;5099270;28;20051;-59
2022/10/20 06:01:19;;;;;;;8.82;5.40;;;;;;;13.19;66.20;101214.06;5091279;28;20052;-60
2022/10/20 06:03:47;;;;;;;9.13;4.85;;;;;;;13.20;66.06;101201.38;5104989;27;20348;-61
2022/10/20 06:06:16;;;;;;;7.13;5.28;;;;;;;13.17;66.47;101199.97;5111842;28;20726;-62
2022/10/20 06:08:43;;;;;;;9.82;5.20;;;;;;;13.17;66.06;101202.66;5115012;28;20054;-60
2022/10/20 06:11:14;;;;;;;9.65;5.70;;;;;;;13.16;66.60;101200.16;5111677;28;20059;-63
2022/10/20 06:13:43;;;;;;;11.27;6.13;;;;;;;13.17;66.58;101208.06;5120919;28;20063;-59
2022/10/20 06:16:18;;;;;;;10.30;5.00;;;;;;;13.17;66.33;101209.94;5105658;28;20119;-60
2022/10/20 06:18:46;;;;;;;11.88;5.40;;;;;;;13.15;67.21;101222.81;5105153;28;20054;-62
2022/10/20 06:21:16;;;;;;;8.35;5.93;;;;;;;13.16;67.01;101219.91;5103894;28;20048;-61
2022/10/20 06:23:44;;;;;;;9.88;6.38;;;;;;;13.15;66.37;101229.03;5104826;28;20040;-61
2022/10/20 06:26:16;;;;;;;16.02;5.88;;;;;;;13.16;66.42;101222.63;5109485;28;20065;-61
2022/10/20 06:28:45;;;;;;;8.50;5.40;;;;;;;13.15;66.52;101214.72;5110486;28;20052;-61
2022/10/20 06:31:15;;;;;;;9.32;5.10;;;;;;;13.15;66.91;101212.00;5104415;28;20054;-62
2022/10/20 06:33:43;;;;;;;8.45;5.20;;;;;;;13.14;66.59;101208.50;5108133;28;20052;-62
2022/10/20 06:36:12;;;;;;;9.95;6.28;;;;;;;13.14;66.63;101194.19;5100411;28;20047;-62
2022/10/20 06:38:40;;;;;;;9.27;4.95;;;;;;;13.14;66.89;101199.56;5112868;28;20052;-61
2022/10/20 06:41:11;;;;;;;8.25;4.88;;;;;;;13.14;66.68;101199.56;5101991;28;20059;-61
2022/10/20 06:43:40;;;;;;;8.70;5.80;;;;;;;13.13;66.98;101203.31;5111352;28;20044;-60
2022/10/20 06:46:11;;;;;;;7.60;5.07;;;;;;;13.13;66.91;101197.94;5117029;28;20299;-61
2022/10/20 06:48:39;;;;;;;8.05;5.40;;;;;;;13.14;66.70;101199.56;5101406;28;20051;-61
2022/10/20 06:51:10;;;;;;;8.73;4.68;;;;;;;13.14;66.70;101192.31;5104064;28;20504;-60
2022/10/20 06:53:39;;;;;;;13.77;5.30;;;;;;;13.15;66.58;101190.44;5111635;28;20084;-61
2022/10/20 06:56:14;;;;;;;8.88;4.60;;;;;;;13.14;66.51;101186.09;5113827;28;20055;-61
2022/10/20 06:58:45;;;;;;;10.00;4.95;;;;;;;13.15;66.89;101185.84;5112671;28;20058;-63
2022/10/20 07:01:14;;;;;;;7.25;4.95;;;;;;;13.16;66.91;101175.88;5117862;28;20051;-61
2022/10/20 07:03:43;;;;;;;11.18;5.22;;;;;;;13.15;66.87;101176.94;5117572;28;20055;-61
2022/10/20 07:06:14;;;;;;;8.23;4.63;;;;;;;13.16;66.74;101175.88;5107329;28;20063;-61
2022/10/20 07:08:42;;;;;;;7.25;5.15;;;;;;;13.18;66.36;101187.28;5119831;28;20054;-61
2022/10/20 07:11:12;;;;;;;8.50;5.05;;;;;;;13.18;66.82;101198.91;5116376;28;20117;-61
2022/10/20 07:13:41;;;;;;;7.70;4.85;;;;;;;13.18;66.55;101198.91;5118139;28;20063;-61
2022/10/20 07:16:12;;;;;;;12.20;5.20;;;;;;;13.18;66.82;101193.53;5114036;28;20075;-62
2022/10/20 07:18:40;;;;;;;9.57;4.47;;;;;;;13.18;66.22;101198.91;5113293;28;20048;-61
2022/10/20 07:21:11;;;;;;;8.02;5.03;;;;;;;13.19;66.72;101194.34;5112365;28;20063;-61
2022/10/20 07:23:39;;;;;;;7.03;4.88;;;;;;;13.21;66.44;101200.34;5113508;28;20054;-61
2022/10/20 07:26:10;;;;;;;7.63;4.95;;;;;;;13.19;66.65;101178.97;5122585;28;20044;-61
2022/10/20 07:28:40;;;;;;;8.05;5.10;;;;;;;13.19;66.40;101189.78;5111713;28;20489;-61
2022/10/20 07:31:12;;;;;;;8.40;4.53;;;;;;;13.16;66.44;101192.06;5125851;28;20118;-61
2022/10/20 07:33:40;;;;;;;7.30;4.82;;;;;;;13.19;66.61;101194.34;5115475;28;20058;-61
2022/10/20 07:36:13;;;;;;;8.55;4.63;;;;;;;13.20;66.47;101196.00;5107396;28;20044;-61
2022/10/20 07:38:41;;;;;;;7.82;4.80;;;;;;;13.20;66.40;101187.88;5115778;28;20047;-61
2022/10/20 07:41:09;;;;;;;6.45;4.78;;;;;;;13.21;66.60;101203.03;5110613;28;20044;-61
2022/10/20 07:43:38;;;;;;;7.78;4.50;;;;;;;13.19;66.39;101199.75;5117126;28;20122;-61
2022/10/20 07:46:07;;;;;;;13.10;5.04;;;;;;;13.12;66.64;101189.00;4765905;28;10000481;-61
2022/10/20 07:48:36;;;;;;;9.52;4.65;;;;;;;13.19;66.87;101191.66;5107323;28;20078;-61
2022/10/20 07:51:15;;;;;;;7.07;5.18;;;;;;;13.18;66.95;101190.81;5116032;28;20056;-61
2022/10/20 07:53:43;;;;;;;8.40;4.55;;;;;;;13.20;66.43;101196.00;5110603;28;20051;-61
2022/10/20 07:56:11;;;;;;;9.60;4.75;;;;;;;13.18;66.91;101204.31;5116911;28;20054;-61
2022/10/20 07:58:39;;;;;;;8.95;5.18;;;;;;;13.20;66.40;101204.09;5107272;28;20062;-61
2022/10/20 08:01:07;;;;;;;6.25;4.68;;;;;;;13.19;66.41;101195.16;5115161;28;20044;-61
2022/10/20 08:03:37;;;;;;;5.90;4.28;;;;;;;13.24;66.64;101183.69;5107127;28;20055;-61
2022/10/20 08:06:06;;;;;;;10.38;4.70;;;;;;;13.23;66.89;101182.03;5109324;28;20055;-61
2022/10/20 08:08:33;;;;;;;7.45;4.85;;;;;;;13.23;66.91;101184.72;5107380;28;20058;-61
2022/10/20 08:11:01;;;;;;;6.50;4.15;;;;;;;13.24;66.48;101203.41;5120056;28;20055;-61
2022/10/20 08:13:31;;;;;;;6.65;4.63;;;;;;;13.25;66.56;101202.34;5108545;28;20057;-61
2022/10/20 08:15:59;;;;;;;6.78;4.55;;;;;;;13.28;66.48;101190.25;5108725;28;20058;-61
2022/10/20 08:18:45;;;;;;;9.50;4.90;;;;;;;13.30;66.98;101193.56;5099880;28;20067;-62
2022/10/20 08:21:24;;;;;;;9.55;4.72;;;;;;;13.30;66.96;101183.56;5103250;28;20059;-62
2022/10/20 08:23:52;;;;;;;6.78;4.95;;;;;;;13.29;66.89;101181.09;5118861;28;20048;-61
2022/10/20 08:26:22;;;;;;;7.53;4.65;;;;;;;13.28;66.77;101184.84;5108523;28;20044;-62
2022/10/20 08:28:51;;;;;;;6.80;4.88;;;;;;;13.27;66.94;101178.63;5115362;28;20047;-63
2022/10/20 08:31:20;;;;;;;6.15;4.25;;;;;;;13.29;67.05;101181.09;5102617;28;20437;-61
2022/10/20 08:33:49;;;;;;;10.88;4.75;;;;;;;13.30;66.81;101183.56;5104165;28;20058;-61
2022/10/20 08:36:20;;;;;;;7.80;4.70;;;;;;;13.33;66.62;101203.88;5116055;28;20071;-61
2022/10/20 08:38:48;;;;;;;6.53;4.10;;;;;;;13.34;66.64;101190.16;5106585;28;20047;-61
2022/10/20 08:41:20;;;;;;;7.15;4.47;;;;;;;13.37;66.59;101188.03;5104230;28;20048;-60
2022/10/20 08:43:50;;;;;;;8.10;4.35;;;;;;;13.38;66.53;101182.41;5105301;28;20063;-61
2022/10/20 08:46:20;;;;;;;6.13;4.35;;;;;;;13.36;66.90;101189.94;5112322;28;20043;-62
2022/10/20 08:48:50;;;;;;;6.60;4.65;;;;;;;13.38;67.14;101187.00;5112874;28;20044;-61
2022/10/20 08:51:19;;;;;;;7.55;4.72;;;;;;;13.38;66.63;101173.50;5110876;28;20054;-61
2022/10/20 08:53:49;;;;;;;7.18;4.38;;;;;;;13.38;67.15;101165.41;5121993;28;20043;-61
2022/10/20 08:56:19;;;;;;;7.38;4.65;;;;;;;13.37;66.90;101156.47;5119659;28;20151;-61
2022/10/20 08:58:47;;;;;;;11.75;4.95;;;;;;;13.41;67.20;101159.53;5113445;28;20052;-62
2022/10/20 09:01:20;;;;;;;9.73;4.50;;;;;;;13.42;67.29;101171.97;5113319;28;20046;-61
2022/10/20 09:03:54;;;;;;;7.32;4.50;;;;;;;13.42;67.20;101164.69;5110209;28;20058;-61
2022/10/20 09:06:22;;;;;;;7.38;4.30;;;;;;;13.44;67.33;101161.75;5117488;28;20051;-61
2022/10/20 09:08:51;;;;;;;11.38;4.78;;;;;;;13.39;67.30;101154.38;5121697;28;20062;-61
2022/10/20 09:11:23;;;;;;;7.05;4.55;;;;;;;13.43;67.07;101165.53;5116769;28;20438;-61
2022/10/20 09:13:50;;;;;;;7.85;4.47;;;;;;;13.46;67.35;101160.47;5113351;28;20054;-61
2022/10/20 09:16:23;;;;;;;8.82;4.40;;;;;;;13.47;67.11;101164.00;5115913;28;20110;-61
2022/10/20 09:19:16;;;;;;;9.15;4.47;;;;;;;13.48;67.07;101161.06;5107497;28;20048;-61
2022/10/20 09:21:47;;;;;;;7.05;4.53;;;;;;;13.52;67.03;101161.44;5105677;28;20058;-60
2022/10/20 09:24:14;;;;;;;8.30;5.05;;;;;;;13.53;67.16;101158.50;5118893;28;20044;-61
2022/10/20 09:26:45;;;;;;;8.15;4.50;;;;;;;13.54;67.53;101156.59;5106303;28;20055;-61
2022/10/20 09:29:35;;;;;;;7.20;4.22;;;;;;;13.38;67.17;101136.53;5109608;28;20047;-61
2022/10/20 09:32:03;;;;;;;7.35;4.80;;;;;;;13.56;67.55;101171.53;5120617;28;20389;-61
2022/10/20 09:35:10;;;;;;;7.88;5.38;;;;;;;13.55;67.60;101167.19;5120325;28;20043;-61
2022/10/20 09:37:38;;;;;;;10.02;5.05;;;;;;;13.58;67.43;101164.00;5110762;28;20054;-61
2022/10/20 09:40:14;;;;;;;8.13;4.85;;;;;;;13.58;67.85;101171.28;5112187;28;20063;-61
2022/10/20 09:42:49;;;;;;;6.50;4.55;;;;;;;13.58;67.61;101163.19;5110997;28;20058;-61
2022/10/20 09:45:20;;;;;;;7.63;4.88;;;;;;;13.60;67.68;101163.78;5118004;28;20043;-61
2022/10/20 09:47:52;;;;;;;6.43;4.90;;;;;;;13.60;67.81;101156.50;5114384;28;20052;-61
2022/10/20 09:50:27;;;;;;;8.13;5.05;;;;;;;13.59;67.72;101157.56;5109657;28;20066;-61
2022/10/20 09:52:55;;;;;;;8.80;4.53;;;;;;;13.61;68.17;101146.53;5106310;28;20131;-61
2022/10/20 09:55:28;;;;;;;8.85;4.50;;;;;;;13.65;67.94;101158.50;5117948;28;20070;-61
2022/10/20 09:57:57;;;;;;;8.23;5.05;;;;;;;13.64;67.81;101160.38;5124789;28;20053;-61
2022/10/20 10:00:29;;;;;;;7.05;4.68;;;;;;;13.65;68.18;101162.03;5109896;28;20063;-61
2022/10/20 10:03:20;;;;;;;6.90;5.38;;;;;;;13.66;68.08;101160.97;5121434;28;20054;-61
2022/10/20 10:05:51;;;;;;;8.75;4.65;;;;;;;13.68;67.88;101158.03;5112521;28;20044;-61
2022/10/20 10:08:20;;;;;;;11.80;4.63;;;;;;;13.67;68.14;101167.19;5113324;28;20062;-61
2022/10/20 10:10:59;;;;;;;7.82;4.20;;;;;;;13.68;67.92;101163.44;5115331;28;20047;-61
2022/10/20 10:13:30;;;;;;;8.70;4.80;;;;;;;13.69;68.03;101167.78;5109043;28;20047;-61
2022/10/20 10:16:05;;;;;;;7.00;4.15;;;;;;;13.68;68.48;101161.56;5124361;28;20040;-61
2022/10/20 10:18:34;;;;;;;7.25;5.00;;;;;;;13.68;68.49;101145.34;5112001;28;20055;-61
2022/10/20 10:21:06;;;;;;;6.63;4.30;;;;;;;13.68;68.23;101148.03;5107366;28;20044;-61
2022/10/20 10:23:39;;;;;;;11.20;6.10;;;;;;;13.68;68.54;101139.94;5107282;28;20222;-60
2022/10/20 10:26:48;;;;;;;7.05;4.30;;;;;;;13.70;68.54;101137.00;5108713;28;20046;-61
2022/10/20 10:29:19;;;;;;;7.70;4.10;;;;;;;13.68;68.67;101137.25;5052816;28;20426;-61
2022/10/20 10:31:52;;;;;;;7.68;4.65;;;;;;;13.68;68.74;101129.13;5054596;28;20053;-61
2022/10/20 10:34:44;;;;;;;6.63;3.90;;;;;;;13.70;68.66;101130.78;5057768;28;20053;-61
2022/10/20 10:37:16;;;;;;;8.10;4.18;;;;;;;13.69;68.95;101119.16;5046456;28;20045;-61
2022/10/20 10:39:44;;;;;;;8.25;4.82;;;;;;;13.70;68.88;101130.78;5046244;28;20080;-62
2022/10/20 10:42:38;;;;;;;8.82;4.35;;;;;;;13.72;68.81;101136.78;5053435;28;20056;-61
2022/10/20 10:45:34;;;;;;;8.95;4.25;;;;;;;13.73;69.25;101138.41;5057248;28;20080;-61
2022/10/20 10:48:34;;;;;;;8.13;4.28;;;;;;;13.75;68.98;101139.00;5059790;28;20055;-61
2022/10/20 10:51:08;;;;;;;11.50;4.78;;;;;;;13.76;69.34;101146.03;5058327;28;20048;-61
2022/10/20 10:53:53;;;;;;;9.32;4.72;;;;;;;13.76;69.10;101149.56;5056189;28;20063;-61
2022/10/20 10:56:30;;;;;;;8.73;4.28;;;;;;;13.78;69.77;101133.13;5059885;28;20045;-62
2022/10/20 10:59:05;;;;;;;10.00;4.50;;;;;;;13.79;69.47;101129.38;5051235;28;20049;-61
2022/10/20 11:01:50;;;;;;;10.10;5.00;;;;;;;13.80;69.73;101122.91;5052429;28;20052;-61
2022/10/20 11:04:43;;;;;;;8.45;4.70;;;;;;;13.79;69.96;101116.69;5066213;28;20048;-62
2022/10/20 11:07:22;;;;;;;9.88;5.90;;;;;;;13.82;69.94;101107.28;5110654;28;20078;-61
2022/10/20 11:10:03;;;;;;;10.00;5.43;;;;;;;13.81;70.07;101095.66;5107758;28;20056;-63
2022/10/20 11:12:43;;;;;;;11.23;4.53;;;;;;;13.87;69.78;101100.09;5111126;28;20047;-60
2022/10/20 11:15:24;;;;;;;7.30;4.57;;;;;;;14.00;69.39;101097.13;5108315;28;20563;-63
2022/10/20 11:18:01;;;;;;;9.52;5.18;;;;;;;14.18;69.46;101103.44;5104191;28;20044;-63
2022/10/20 11:20:38;;;;;;;10.02;5.80;;;;;;;14.37;69.00;101102.19;4752469;28;10000106;-61
2022/10/20 11:23:20;;;;;;;;;;;;;;;14.55;67.97;101104.75;5105063;28;20078;-61
2022/10/20 11:25:54;;;;;;;9.32;5.03;;;;;;;14.74;67.39;101088.31;5104329;28;19947;-61
2022/10/20 11:28:31;;;;;;;12.48;5.28;;;;;;;14.95;66.81;101079.47;5106290;28;20052;-61
2022/10/20 11:30:59;;;;;;;9.52;4.80;;;;;;;15.05;66.03;101068.00;5106092;28;20485;-61
2022/10/20 11:33:33;;;;;;;9.23;5.80;;;;;;;15.11;66.04;101067.00;5100547;28;20054;-61
2022/10/20 11:36:12;;;;;;;12.10;5.18;;;;;;;15.09;65.97;101061.84;5108109;28;20058;-61
2022/10/20 11:38:44;;;;;;;10.00;6.25;;;;;;;15.03;66.38;101060.13;5111716;28;20366;-61
2022/10/20 11:41:17;;;;;;;7.35;5.32;;;;;;;14.93;66.95;101055.38;5104023;28;20066;-61
2022/10/20 11:43:50;;;;;;;12.65;5.50;;;;;;;14.79;67.14;101045.94;5106479;28;20055;-61
2022/10/20 11:46:21;;;;;;;9.02;5.50;;;;;;;14.68;67.70;101041.41;5113297;28;20048;-61
2022/10/20 11:48:51;;;;;;;10.82;5.55;;;;;;;14.66;68.23;101048.94;5104632;28;20048;-61